sensor_id;sensor_type;location;lat;lon;timestamp;temperature;humidity
38428;DHT22;24211;49.980;19.776;2023-05-07T00:01:04;13.60;99.90
38428;DHT22;24211;49.980;19.776;2023-05-07T00:03:33;13.60;99.90
38428;DHT22;24211;49.980;19.776;2023-05-07T00:06:00;13.60;99.90
38428;DHT22;24211;49.980;19.776;2023-05-07T00:08:27;13.60;99.90
38428;DHT22;24211;49.980;19.776;2023-05-07T00:10:55;13.60;99.90
38428;DHT22;24211;49.980;19.776;2023-05-07T00:13:22;13.60;99.90
38428;DHT22;24211;49.980;19.776;2023-05-07T00:15:49;13.70;99.90
38428;DHT22;24211;49.980;19.776;2023-05-07T00:18:17;13.70;99.90
38428;DHT22;24211;49.980;19.776;2023-05-07T00:20:48;13.70;99.90
38428;DHT22;24211;49.980;19.776;2023-05-07T00:23:15;13.70;99.90
38428;DHT22;24211;49.980;19.776;2023-05-07T00:25:42;13.70;99.90
38428;DHT22;24211;49.980;19.776;2023-05-07T00:28:09;13.70;99.90
38428;DHT22;24211;49.980;19.776;2023-05-07T00:30:37;13.70;99.90
38428;DHT22;24211;49.980;19.776;2023-05-07T00:33:04;13.70;99.90
38428;DHT22;24211;49.980;19.776;2023-05-07T00:35:31;13.70;99.90
38428;DHT22;24211;49.980;19.776;2023-05-07T00:37:59;13.60;99.90
38428;DHT22;24211;49.980;19.776;2023-05-07T00:40:28;13.70;99.90
38428;DHT22;24211;49.980;19.776;2023-05-07T00:42:55;13.70;99.90
38428;DHT22;24211;49.980;19.776;2023-05-07T00:45:27;13.70;99.90
38428;DHT22;24211;49.980;19.776;2023-05-07T00:47:57;13.70;99.90
38428;DHT22;24211;49.980;19.776;2023-05-07T00:50:27;13.50;99.90
38428;DHT22;24211;49.980;19.776;2023-05-07T00:52:56;13.50;99.90
38428;DHT22;24211;49.980;19.776;2023-05-07T00:55:24;13.40;99.90
38428;DHT22;24211;49.980;19.776;2023-05-07T00:57:51;13.50;99.90
38428;DHT22;24211;49.980;19.776;2023-05-07T01:00:19;13.50;99.90
38428;DHT22;24211;49.980;19.776;2023-05-07T01:02:46;13.50;99.90
38428;DHT22;24211;49.980;19.776;2023-05-07T01:05:16;13.50;99.90
38428;DHT22;24211;49.980;19.776;2023-05-07T01:07:46;13.50;99.90
38428;DHT22;24211;49.980;19.776;2023-05-07T01:10:15;13.50;99.90
38428;DHT22;24211;49.980;19.776;2023-05-07T01:12:43;13.50;99.90
38428;DHT22;24211;49.980;19.776;2023-05-07T01:15:12;13.40;99.90
38428;DHT22;24211;49.980;19.776;2023-05-07T01:17:41;13.30;99.90
38428;DHT22;24211;49.980;19.776;2023-05-07T01:20:39;13.30;99.90
38428;DHT22;24211;49.980;19.776;2023-05-07T01:23:08;13.30;99.90
38428;DHT22;24211;49.980;19.776;2023-05-07T01:25:38;13.30;99.90
38428;DHT22;24211;49.980;19.776;2023-05-07T01:28:07;13.30;99.90
38428;DHT22;24211;49.980;19.776;2023-05-07T01:30:39;13.30;99.90
38428;DHT22;24211;49.980;19.776;2023-05-07T01:33:15;13.30;99.90
38428;DHT22;24211;49.980;19.776;2023-05-07T01:35:51;13.30;99.90
38428;DHT22;24211;49.980;19.776;2023-05-07T01:38:22;13.40;99.90
38428;DHT22;24211;49.980;19.776;2023-05-07T01:40:51;13.40;99.90
38428;DHT22;24211;49.980;19.776;2023-05-07T01:43:19;13.40;99.90
38428;DHT22;24211;49.980;19.776;2023-05-07T01:45:47;13.40;99.90
38428;DHT22;24211;49.980;19.776;2023-05-07T01:48:15;13.40;99.90
38428;DHT22;24211;49.980;19.776;2023-05-07T01:50:44;13.40;99.90
38428;DHT22;24211;49.980;19.776;2023-05-07T01:53:12;13.40;99.90
38428;DHT22;24211;49.980;19.776;2023-05-07T01:55:39;13.40;99.90
38428;DHT22;24211;49.980;19.776;2023-05-07T01:58:07;13.40;99.90
38428;DHT22;24211;49.980;19.776;2023-05-07T02:00:35;13.30;99.90
38428;DHT22;24211;49.980;19.776;2023-05-07T02:03:02;13.30;99.90
38428;DHT22;24211;49.980;19.776;2023-05-07T02:05:53;13.30;99.90
38428;DHT22;24211;49.980;19.776;2023-05-07T02:08:46;13.30;99.90
38428;DHT22;24211;49.980;19.776;2023-05-07T02:11:15;13.30;99.90
38428;DHT22;24211;49.980;19.776;2023-05-07T02:13:43;13.30;99.90
38428;DHT22;24211;49.980;19.776;2023-05-07T02:16:10;13.20;99.90
38428;DHT22;24211;49.980;19.776;2023-05-07T02:18:38;13.20;99.90
38428;DHT22;24211;49.980;19.776;2023-05-07T02:21:07;13.20;99.90
38428;DHT22;24211;49.980;19.776;2023-05-07T02:23:34;13.20;99.90
38428;DHT22;24211;49.980;19.776;2023-05-07T02:26:03;13.20;99.90
38428;DHT22;24211;49.980;19.776;2023-05-07T02:28:31;13.20;99.90
38428;DHT22;24211;49.980;19.776;2023-05-07T02:31:04;13.20;99.90
38428;DHT22;24211;49.980;19.776;2023-05-07T02:33:33;13.10;99.90
38428;DHT22;24211;49.980;19.776;2023-05-07T02:36:10;13.10;99.90
38428;DHT22;24211;49.980;19.776;2023-05-07T02:38:50;13.10;99.90
38428;DHT22;24211;49.980;19.776;2023-05-07T02:41:17;13.10;99.90
38428;DHT22;24211;49.980;19.776;2023-05-07T02:43:45;13.10;99.90
38428;DHT22;24211;49.980;19.776;2023-05-07T02:46:13;13.00;99.90
38428;DHT22;24211;49.980;19.776;2023-05-07T02:48:45;13.00;99.90
38428;DHT22;24211;49.980;19.776;2023-05-07T02:51:12;12.90;99.90
38428;DHT22;24211;49.980;19.776;2023-05-07T02:53:41;12.90;99.90
38428;DHT22;24211;49.980;19.776;2023-05-07T02:56:09;12.80;99.90
38428;DHT22;24211;49.980;19.776;2023-05-07T02:58:36;12.80;99.90
38428;DHT22;24211;49.980;19.776;2023-05-07T03:01:04;12.80;99.90
38428;DHT22;24211;49.980;19.776;2023-05-07T03:03:44;12.80;99.90
38428;DHT22;24211;49.980;19.776;2023-05-07T03:06:12;12.90;99.90
38428;DHT22;24211;49.980;19.776;2023-05-07T03:08:40;12.90;99.90
38428;DHT22;24211;49.980;19.776;2023-05-07T03:11:07;12.90;99.90
38428;DHT22;24211;49.980;19.776;2023-05-07T03:13:35;12.80;99.90
38428;DHT22;24211;49.980;19.776;2023-05-07T03:16:02;12.80;99.90
38428;DHT22;24211;49.980;19.776;2023-05-07T03:18:30;12.80;99.90
38428;DHT22;24211;49.980;19.776;2023-05-07T03:20:58;12.70;99.90
38428;DHT22;24211;49.980;19.776;2023-05-07T03:23:25;12.70;99.90
38428;DHT22;24211;49.980;19.776;2023-05-07T03:25:52;12.60;99.90
38428;DHT22;24211;49.980;19.776;2023-05-07T03:28:20;12.60;99.90
38428;DHT22;24211;49.980;19.776;2023-05-07T03:30:53;12.60;99.90
38428;DHT22;24211;49.980;19.776;2023-05-07T03:33:21;12.50;99.90
38428;DHT22;24211;49.980;19.776;2023-05-07T03:35:49;12.50;99.90
38428;DHT22;24211;49.980;19.776;2023-05-07T03:38:21;12.60;99.90
38428;DHT22;24211;49.980;19.776;2023-05-07T03:40:49;12.60;99.90
38428;DHT22;24211;49.980;19.776;2023-05-07T03:43:17;12.50;99.90
38428;DHT22;24211;49.980;19.776;2023-05-07T03:45:49;12.50;99.90
38428;DHT22;24211;49.980;19.776;2023-05-07T03:48:21;12.40;99.90
38428;DHT22;24211;49.980;19.776;2023-05-07T03:50:51;12.40;99.90
38428;DHT22;24211;49.980;19.776;2023-05-07T03:53:19;12.40;99.90
38428;DHT22;24211;49.980;19.776;2023-05-07T03:55:47;12.50;99.90
38428;DHT22;24211;49.980;19.776;2023-05-07T03:58:14;12.40;99.90
38428;DHT22;24211;49.980;19.776;2023-05-07T04:00:42;12.50;99.90
38428;DHT22;24211;49.980;19.776;2023-05-07T04:03:19;12.30;99.90
38428;DHT22;24211;49.980;19.776;2023-05-07T04:05:47;12.20;99.90
38428;DHT22;24211;49.980;19.776;2023-05-07T04:08:14;12.30;99.90
38428;DHT22;24211;49.980;19.776;2023-05-07T04:10:46;12.30;99.90
38428;DHT22;24211;49.980;19.776;2023-05-07T04:13:13;12.20;99.90
38428;DHT22;24211;49.980;19.776;2023-05-07T04:15:42;12.20;99.90
38428;DHT22;24211;49.980;19.776;2023-05-07T04:18:12;12.10;99.90
38428;DHT22;24211;49.980;19.776;2023-05-07T04:20:43;12.10;99.90
38428;DHT22;24211;49.980;19.776;2023-05-07T04:23:12;11.80;99.90
38428;DHT22;24211;49.980;19.776;2023-05-07T04:25:41;11.90;99.90
38428;DHT22;24211;49.980;19.776;2023-05-07T04:28:22;11.80;99.90
38428;DHT22;24211;49.980;19.776;2023-05-07T04:30:51;11.90;99.90
38428;DHT22;24211;49.980;19.776;2023-05-07T04:33:20;12.00;99.90
38428;DHT22;24211;49.980;19.776;2023-05-07T04:35:49;12.10;99.90
38428;DHT22;24211;49.980;19.776;2023-05-07T04:38:16;12.10;99.90
38428;DHT22;24211;49.980;19.776;2023-05-07T04:40:44;12.00;99.90
38428;DHT22;24211;49.980;19.776;2023-05-07T04:43:17;12.10;99.90
38428;DHT22;24211;49.980;19.776;2023-05-07T04:45:52;12.00;99.90
38428;DHT22;24211;49.980;19.776;2023-05-07T04:48:22;12.00;99.90
38428;DHT22;24211;49.980;19.776;2023-05-07T04:50:51;12.00;99.90
38428;DHT22;24211;49.980;19.776;2023-05-07T04:53:20;12.00;99.90
38428;DHT22;24211;49.980;19.776;2023-05-07T04:55:55;12.00;99.90
38428;DHT22;24211;49.980;19.776;2023-05-07T04:58:26;12.00;99.90
38428;DHT22;24211;49.980;19.776;2023-05-07T05:00:54;12.00;99.90
38428;DHT22;24211;49.980;19.776;2023-05-07T05:03:22;12.00;99.90
38428;DHT22;24211;49.980;19.776;2023-05-07T05:05:51;12.00;99.90
38428;DHT22;24211;49.980;19.776;2023-05-07T05:08:21;11.90;99.90
38428;DHT22;24211;49.980;19.776;2023-05-07T05:10:48;11.90;99.90
38428;DHT22;24211;49.980;19.776;2023-05-07T05:13:17;11.90;99.90
38428;DHT22;24211;49.980;19.776;2023-05-07T05:15:45;11.90;99.90
38428;DHT22;24211;49.980;19.776;2023-05-07T05:18:13;11.90;99.90
38428;DHT22;24211;49.980;19.776;2023-05-07T05:20:40;11.60;99.90
38428;DHT22;24211;49.980;19.776;2023-05-07T05:23:08;11.50;99.90
38428;DHT22;24211;49.980;19.776;2023-05-07T05:25:36;11.40;99.90
38428;DHT22;24211;49.980;19.776;2023-05-07T05:28:08;11.40;99.90
38428;DHT22;24211;49.980;19.776;2023-05-07T05:30:35;11.30;99.90
38428;DHT22;24211;49.980;19.776;2023-05-07T05:33:03;11.50;99.90
38428;DHT22;24211;49.980;19.776;2023-05-07T05:35:31;11.40;99.90
38428;DHT22;24211;49.980;19.776;2023-05-07T05:38:02;11.30;99.90
38428;DHT22;24211;49.980;19.776;2023-05-07T05:40:30;11.20;99.90
38428;DHT22;24211;49.980;19.776;2023-05-07T05:42:57;11.20;99.90
38428;DHT22;24211;49.980;19.776;2023-05-07T05:45:25;11.20;99.90
38428;DHT22;24211;49.980;19.776;2023-05-07T05:47:53;11.30;99.90
38428;DHT22;24211;49.980;19.776;2023-05-07T05:50:23;11.40;99.90
38428;DHT22;24211;49.980;19.776;2023-05-07T05:52:50;11.50;99.90
38428;DHT22;24211;49.980;19.776;2023-05-07T05:55:18;11.60;99.90
38428;DHT22;24211;49.980;19.776;2023-05-07T05:57:46;11.60;99.90
38428;DHT22;24211;49.980;19.776;2023-05-07T06:00:16;11.60;99.90
38428;DHT22;24211;49.980;19.776;2023-05-07T06:02:46;11.60;99.90
38428;DHT22;24211;49.980;19.776;2023-05-07T06:05:20;11.50;99.90
38428;DHT22;24211;49.980;19.776;2023-05-07T06:07:51;11.40;99.90
38428;DHT22;24211;49.980;19.776;2023-05-07T06:10:19;11.50;99.90
38428;DHT22;24211;49.980;19.776;2023-05-07T06:12:46;11.40;99.90
38428;DHT22;24211;49.980;19.776;2023-05-07T06:15:14;11.40;99.90
38428;DHT22;24211;49.980;19.776;2023-05-07T06:17:42;11.30;99.90
38428;DHT22;24211;49.980;19.776;2023-05-07T06:20:11;11.30;99.90
38428;DHT22;24211;49.980;19.776;2023-05-07T06:22:40;11.10;99.90
38428;DHT22;24211;49.980;19.776;2023-05-07T06:25:09;11.20;99.90
38428;DHT22;24211;49.980;19.776;2023-05-07T06:27:37;11.10;99.90
38428;DHT22;24211;49.980;19.776;2023-05-07T06:30:07;11.10;99.90
38428;DHT22;24211;49.980;19.776;2023-05-07T06:32:35;11.10;99.90
38428;DHT22;24211;49.980;19.776;2023-05-07T06:35:03;10.80;99.90
38428;DHT22;24211;49.980;19.776;2023-05-07T06:37:34;10.60;99.90
38428;DHT22;24211;49.980;19.776;2023-05-07T06:40:05;10.80;99.90
38428;DHT22;24211;49.980;19.776;2023-05-07T06:42:36;11.00;99.90
38428;DHT22;24211;49.980;19.776;2023-05-07T06:45:23;11.10;99.90
38428;DHT22;24211;49.980;19.776;2023-05-07T06:47:54;11.20;99.90
38428;DHT22;24211;49.980;19.776;2023-05-07T06:50:22;11.20;99.90
38428;DHT22;24211;49.980;19.776;2023-05-07T06:52:54;11.20;99.90
38428;DHT22;24211;49.980;19.776;2023-05-07T06:55:21;11.20;99.90
38428;DHT22;24211;49.980;19.776;2023-05-07T06:57:48;11.20;99.90
38428;DHT22;24211;49.980;19.776;2023-05-07T07:00:17;11.10;99.90
38428;DHT22;24211;49.980;19.776;2023-05-07T07:02:51;11.00;99.90
38428;DHT22;24211;49.980;19.776;2023-05-07T07:05:21;10.90;99.90
38428;DHT22;24211;49.980;19.776;2023-05-07T07:07:48;10.90;99.90
38428;DHT22;24211;49.980;19.776;2023-05-07T07:10:20;11.00;99.90
38428;DHT22;24211;49.980;19.776;2023-05-07T07:12:50;11.00;99.90
38428;DHT22;24211;49.980;19.776;2023-05-07T07:15:20;11.00;99.90
38428;DHT22;24211;49.980;19.776;2023-05-07T07:17:53;10.60;99.90
38428;DHT22;24211;49.980;19.776;2023-05-07T07:20:21;10.80;99.90
38428;DHT22;24211;49.980;19.776;2023-05-07T07:22:49;10.60;99.90
38428;DHT22;24211;49.980;19.776;2023-05-07T07:25:17;10.70;99.90
38428;DHT22;24211;49.980;19.776;2023-05-07T07:27:45;10.70;99.90
38428;DHT22;24211;49.980;19.776;2023-05-07T07:30:14;10.80;99.90
38428;DHT22;24211;49.980;19.776;2023-05-07T07:32:45;10.90;99.90
38428;DHT22;24211;49.980;19.776;2023-05-07T07:35:14;10.90;99.90
38428;DHT22;24211;49.980;19.776;2023-05-07T07:37:42;10.90;99.90
38428;DHT22;24211;49.980;19.776;2023-05-07T07:40:11;10.90;99.90
38428;DHT22;24211;49.980;19.776;2023-05-07T07:42:39;11.00;99.90
38428;DHT22;24211;49.980;19.776;2023-05-07T07:45:07;10.90;99.90
38428;DHT22;24211;49.980;19.776;2023-05-07T07:47:40;10.80;99.90
38428;DHT22;24211;49.980;19.776;2023-05-07T07:50:08;10.80;99.90
38428;DHT22;24211;49.980;19.776;2023-05-07T07:52:37;10.70;99.90
38428;DHT22;24211;49.980;19.776;2023-05-07T07:55:07;10.70;99.90
38428;DHT22;24211;49.980;19.776;2023-05-07T07:57:35;10.80;99.90
38428;DHT22;24211;49.980;19.776;2023-05-07T08:00:04;10.70;99.90
38428;DHT22;24211;49.980;19.776;2023-05-07T08:02:42;10.70;99.90
38428;DHT22;24211;49.980;19.776;2023-05-07T08:05:15;10.70;99.90
38428;DHT22;24211;49.980;19.776;2023-05-07T08:07:44;10.70;99.90
38428;DHT22;24211;49.980;19.776;2023-05-07T08:10:12;10.70;99.90
38428;DHT22;24211;49.980;19.776;2023-05-07T08:12:40;10.70;99.90
38428;DHT22;24211;49.980;19.776;2023-05-07T08:15:08;10.70;99.90
38428;DHT22;24211;49.980;19.776;2023-05-07T08:17:35;10.40;99.90
38428;DHT22;24211;49.980;19.776;2023-05-07T08:20:03;10.40;99.90
38428;DHT22;24211;49.980;19.776;2023-05-07T08:22:31;10.50;99.90
38428;DHT22;24211;49.980;19.776;2023-05-07T08:24:59;10.50;99.90
38428;DHT22;24211;49.980;19.776;2023-05-07T08:27:28;10.30;99.90
38428;DHT22;24211;49.980;19.776;2023-05-07T08:29:55;10.10;99.90
38428;DHT22;24211;49.980;19.776;2023-05-07T08:32:22;10.30;99.90
38428;DHT22;24211;49.980;19.776;2023-05-07T08:34:50;10.50;99.90
38428;DHT22;24211;49.980;19.776;2023-05-07T08:37:17;10.60;99.90
38428;DHT22;24211;49.980;19.776;2023-05-07T08:39:45;10.60;99.90
38428;DHT22;24211;49.980;19.776;2023-05-07T08:42:20;10.80;99.90
38428;DHT22;24211;49.980;19.776;2023-05-07T08:44:51;10.80;99.90
38428;DHT22;24211;49.980;19.776;2023-05-07T08:47:26;10.70;99.90
38428;DHT22;24211;49.980;19.776;2023-05-07T08:50:02;10.70;99.90
38428;DHT22;24211;49.980;19.776;2023-05-07T08:52:29;10.50;99.90
38428;DHT22;24211;49.980;19.776;2023-05-07T08:54:57;10.20;99.90
38428;DHT22;24211;49.980;19.776;2023-05-07T08:57:26;10.10;99.90
38428;DHT22;24211;49.980;19.776;2023-05-07T08:59:53;9.90;99.90
38428;DHT22;24211;49.980;19.776;2023-05-07T09:02:21;9.70;99.90
38428;DHT22;24211;49.980;19.776;2023-05-07T09:04:49;10.00;99.90
38428;DHT22;24211;49.980;19.776;2023-05-07T09:07:19;10.20;99.90
38428;DHT22;24211;49.980;19.776;2023-05-07T09:09:46;10.40;99.90
38428;DHT22;24211;49.980;19.776;2023-05-07T09:12:14;10.50;99.90
38428;DHT22;24211;49.980;19.776;2023-05-07T09:14:41;10.50;99.90
38428;DHT22;24211;49.980;19.776;2023-05-07T09:17:09;10.50;99.90
38428;DHT22;24211;49.980;19.776;2023-05-07T09:19:37;10.30;99.90
38428;DHT22;24211;49.980;19.776;2023-05-07T09:22:06;10.40;99.90
38428;DHT22;24211;49.980;19.776;2023-05-07T09:24:51;10.10;99.90
38428;DHT22;24211;49.980;19.776;2023-05-07T09:27:22;10.40;99.90
38428;DHT22;24211;49.980;19.776;2023-05-07T09:29:50;10.50;99.90
38428;DHT22;24211;49.980;19.776;2023-05-07T09:32:17;10.60;99.90
38428;DHT22;24211;49.980;19.776;2023-05-07T09:34:45;10.30;99.90
38428;DHT22;24211;49.980;19.776;2023-05-07T09:37:16;10.50;99.90
38428;DHT22;24211;49.980;19.776;2023-05-07T09:39:46;10.70;99.90
38428;DHT22;24211;49.980;19.776;2023-05-07T09:42:24;10.50;99.90
38428;DHT22;24211;49.980;19.776;2023-05-07T09:44:54;10.00;99.90
38428;DHT22;24211;49.980;19.776;2023-05-07T09:47:26;10.20;99.90
38428;DHT22;24211;49.980;19.776;2023-05-07T09:49:59;10.10;99.90
38428;DHT22;24211;49.980;19.776;2023-05-07T09:52:33;10.30;99.90
38428;DHT22;24211;49.980;19.776;2023-05-07T09:55:04;10.10;99.90
38428;DHT22;24211;49.980;19.776;2023-05-07T09:57:34;9.90;99.90
38428;DHT22;24211;49.980;19.776;2023-05-07T10:00:06;10.00;99.90
38428;DHT22;24211;49.980;19.776;2023-05-07T10:02:49;10.30;99.90
38428;DHT22;24211;49.980;19.776;2023-05-07T10:05:26;10.20;99.90
38428;DHT22;24211;49.980;19.776;2023-05-07T10:07:57;10.40;99.90
38428;DHT22;24211;49.980;19.776;2023-05-07T10:10:28;10.10;99.90
38428;DHT22;24211;49.980;19.776;2023-05-07T10:12:57;10.20;99.90
38428;DHT22;24211;49.980;19.776;2023-05-07T10:15:31;10.40;99.90
38428;DHT22;24211;49.980;19.776;2023-05-07T10:18:03;10.50;99.90
38428;DHT22;24211;49.980;19.776;2023-05-07T10:20:33;10.40;99.90
38428;DHT22;24211;49.980;19.776;2023-05-07T10:23:05;10.30;99.90
38428;DHT22;24211;49.980;19.776;2023-05-07T10:25:41;10.60;99.90
38428;DHT22;24211;49.980;19.776;2023-05-07T10:28:19;10.70;99.90
38428;DHT22;24211;49.980;19.776;2023-05-07T10:31:08;10.60;99.90
38428;DHT22;24211;49.980;19.776;2023-05-07T10:34:01;10.40;99.90
38428;DHT22;24211;49.980;19.776;2023-05-07T10:36:37;10.50;99.90
38428;DHT22;24211;49.980;19.776;2023-05-07T10:39:06;10.00;99.90
38428;DHT22;24211;49.980;19.776;2023-05-07T10:41:34;10.20;99.90
38428;DHT22;24211;49.980;19.776;2023-05-07T10:44:01;9.90;99.90
38428;DHT22;24211;49.980;19.776;2023-05-07T10:46:32;10.10;99.90
38428;DHT22;24211;49.980;19.776;2023-05-07T10:49:17;10.10;99.90
38428;DHT22;24211;49.980;19.776;2023-05-07T11:01:14;10.60;99.90
38428;DHT22;24211;49.980;19.776;2023-05-07T11:04:13;10.70;99.90
38428;DHT22;24211;49.980;19.776;2023-05-07T11:12:50;10.70;99.90
38428;DHT22;24211;49.980;19.776;2023-05-07T11:15:43;10.60;99.90
38428;DHT22;24211;49.980;19.776;2023-05-07T11:18:47;10.60;99.90
38428;DHT22;24211;49.980;19.776;2023-05-07T11:21:40;10.70;99.90
38428;DHT22;24211;49.980;19.776;2023-05-07T11:24:40;10.70;99.90
38428;DHT22;24211;49.980;19.776;2023-05-07T11:27:12;10.80;99.90
38428;DHT22;24211;49.980;19.776;2023-05-07T11:29:46;10.90;99.90
38428;DHT22;24211;49.980;19.776;2023-05-07T11:32:14;10.90;99.90
38428;DHT22;24211;49.980;19.776;2023-05-07T11:34:52;10.60;99.90
38428;DHT22;24211;49.980;19.776;2023-05-07T11:37:22;10.40;99.90
38428;DHT22;24211;49.980;19.776;2023-05-07T11:40:05;10.40;99.90
38428;DHT22;24211;49.980;19.776;2023-05-07T11:42:38;10.50;99.90
38428;DHT22;24211;49.980;19.776;2023-05-07T11:45:07;10.50;99.90
38428;DHT22;24211;49.980;19.776;2023-05-07T11:47:36;10.50;99.90
38428;DHT22;24211;49.980;19.776;2023-05-07T11:50:07;9.90;99.90
38428;DHT22;24211;49.980;19.776;2023-05-07T11:52:35;9.90;99.90
38428;DHT22;24211;49.980;19.776;2023-05-07T11:55:03;10.10;99.90
38428;DHT22;24211;49.980;19.776;2023-05-07T11:57:33;10.40;99.90
38428;DHT22;24211;49.980;19.776;2023-05-07T12:00:02;10.50;99.90
38428;DHT22;24211;49.980;19.776;2023-05-07T12:02:40;10.40;99.90
38428;DHT22;24211;49.980;19.776;2023-05-07T12:05:09;10.50;99.90
38428;DHT22;24211;49.980;19.776;2023-05-07T12:07:36;10.50;99.90
38428;DHT22;24211;49.980;19.776;2023-05-07T12:10:05;10.00;99.90
38428;DHT22;24211;49.980;19.776;2023-05-07T12:12:46;9.90;99.90
38428;DHT22;24211;49.980;19.776;2023-05-07T12:15:17;9.80;99.90
38428;DHT22;24211;49.980;19.776;2023-05-07T12:17:44;9.50;99.90
38428;DHT22;24211;49.980;19.776;2023-05-07T12:20:12;9.70;99.90
38428;DHT22;24211;49.980;19.776;2023-05-07T12:22:40;9.80;99.90
38428;DHT22;24211;49.980;19.776;2023-05-07T12:25:08;9.80;99.90
38428;DHT22;24211;49.980;19.776;2023-05-07T12:27:37;10.10;99.90
38428;DHT22;24211;49.980;19.776;2023-05-07T12:30:10;10.00;99.90
38428;DHT22;24211;49.980;19.776;2023-05-07T12:32:38;10.30;99.90
38428;DHT22;24211;49.980;19.776;2023-05-07T12:35:06;10.30;99.90
38428;DHT22;24211;49.980;19.776;2023-05-07T12:37:35;10.40;99.90
38428;DHT22;24211;49.980;19.776;2023-05-07T12:40:08;10.60;99.90
38428;DHT22;24211;49.980;19.776;2023-05-07T12:42:39;10.70;99.90
38428;DHT22;24211;49.980;19.776;2023-05-07T12:45:11;10.60;99.90
38428;DHT22;24211;49.980;19.776;2023-05-07T12:47:44;10.70;99.90
38428;DHT22;24211;49.980;19.776;2023-05-07T12:50:16;10.60;99.90
38428;DHT22;24211;49.980;19.776;2023-05-07T12:52:45;10.60;99.90
38428;DHT22;24211;49.980;19.776;2023-05-07T12:55:14;10.50;99.90
38428;DHT22;24211;49.980;19.776;2023-05-07T12:57:48;10.30;99.90
38428;DHT22;24211;49.980;19.776;2023-05-07T13:00:18;10.20;99.90
38428;DHT22;24211;49.980;19.776;2023-05-07T13:02:58;10.20;99.90
38428;DHT22;24211;49.980;19.776;2023-05-07T13:05:26;10.10;99.90
38428;DHT22;24211;49.980;19.776;2023-05-07T13:07:57;10.00;99.90
38428;DHT22;24211;49.980;19.776;2023-05-07T13:10:26;10.00;99.90
38428;DHT22;24211;49.980;19.776;2023-05-07T13:12:54;9.90;99.90
38428;DHT22;24211;49.980;19.776;2023-05-07T13:15:21;10.00;99.90
38428;DHT22;24211;49.980;19.776;2023-05-07T13:17:49;9.70;99.90
38428;DHT22;24211;49.980;19.776;2023-05-07T13:20:17;9.60;99.90
38428;DHT22;24211;49.980;19.776;2023-05-07T13:22:44;9.50;99.90
38428;DHT22;24211;49.980;19.776;2023-05-07T13:25:12;9.60;99.90
38428;DHT22;24211;49.980;19.776;2023-05-07T13:27:40;9.60;99.90
38428;DHT22;24211;49.980;19.776;2023-05-07T13:30:07;9.80;99.90
38428;DHT22;24211;49.980;19.776;2023-05-07T13:32:35;9.80;99.90
38428;DHT22;24211;49.980;19.776;2023-05-07T13:35:03;9.70;99.90
38428;DHT22;24211;49.980;19.776;2023-05-07T13:37:31;9.60;99.90
38428;DHT22;24211;49.980;19.776;2023-05-07T13:39:58;9.70;99.90
38428;DHT22;24211;49.980;19.776;2023-05-07T13:42:26;9.50;99.90
38428;DHT22;24211;49.980;19.776;2023-05-07T13:44:53;9.50;99.90
38428;DHT22;24211;49.980;19.776;2023-05-07T13:47:20;9.50;99.90
38428;DHT22;24211;49.980;19.776;2023-05-07T13:49:50;9.70;99.90
38428;DHT22;24211;49.980;19.776;2023-05-07T13:52:17;9.60;99.90
38428;DHT22;24211;49.980;19.776;2023-05-07T13:54:45;9.30;99.90
38428;DHT22;24211;49.980;19.776;2023-05-07T13:57:12;9.20;99.90
38428;DHT22;24211;49.980;19.776;2023-05-07T13:59:42;9.40;99.90
38428;DHT22;24211;49.980;19.776;2023-05-07T14:02:09;9.50;99.90
38428;DHT22;24211;49.980;19.776;2023-05-07T14:04:37;9.50;99.90
38428;DHT22;24211;49.980;19.776;2023-05-07T14:07:04;10.00;99.90
38428;DHT22;24211;49.980;19.776;2023-05-07T14:09:32;10.20;99.90
38428;DHT22;24211;49.980;19.776;2023-05-07T14:11:59;10.20;99.90
38428;DHT22;24211;49.980;19.776;2023-05-07T14:14:27;10.10;99.90
38428;DHT22;24211;49.980;19.776;2023-05-07T14:16:54;10.00;99.90
38428;DHT22;24211;49.980;19.776;2023-05-07T14:19:22;9.70;99.90
38428;DHT22;24211;49.980;19.776;2023-05-07T14:21:49;9.80;99.90
38428;DHT22;24211;49.980;19.776;2023-05-07T14:24:17;9.80;99.90
38428;DHT22;24211;49.980;19.776;2023-05-07T14:27:03;9.40;99.90
38428;DHT22;24211;49.980;19.776;2023-05-07T14:29:30;9.60;99.90
38428;DHT22;24211;49.980;19.776;2023-05-07T14:31:58;9.60;99.90
38428;DHT22;24211;49.980;19.776;2023-05-07T14:34:26;9.60;99.90
38428;DHT22;24211;49.980;19.776;2023-05-07T14:36:53;9.70;99.90
38428;DHT22;24211;49.980;19.776;2023-05-07T14:39:20;9.40;99.90
38428;DHT22;24211;49.980;19.776;2023-05-07T14:41:48;9.60;99.90
38428;DHT22;24211;49.980;19.776;2023-05-07T14:44:15;9.20;99.90
38428;DHT22;24211;49.980;19.776;2023-05-07T14:46:42;9.00;99.90
38428;DHT22;24211;49.980;19.776;2023-05-07T14:49:10;9.00;99.90
38428;DHT22;24211;49.980;19.776;2023-05-07T14:51:44;9.00;99.90
38428;DHT22;24211;49.980;19.776;2023-05-07T14:54:15;9.00;99.90
38428;DHT22;24211;49.980;19.776;2023-05-07T14:56:42;9.00;99.90
38428;DHT22;24211;49.980;19.776;2023-05-07T14:59:10;9.40;99.90
38428;DHT22;24211;49.980;19.776;2023-05-07T15:01:38;9.50;99.90
38428;DHT22;24211;49.980;19.776;2023-05-07T15:04:07;9.70;99.90
38428;DHT22;24211;49.980;19.776;2023-05-07T15:06:34;9.70;99.90
38428;DHT22;24211;49.980;19.776;2023-05-07T15:09:02;9.40;99.90
38428;DHT22;24211;49.980;19.776;2023-05-07T15:11:29;9.60;99.90
38428;DHT22;24211;49.980;19.776;2023-05-07T15:13:57;9.10;99.90
38428;DHT22;24211;49.980;19.776;2023-05-07T15:16:24;9.30;99.90
38428;DHT22;24211;49.980;19.776;2023-05-07T15:18:52;9.20;99.90
38428;DHT22;24211;49.980;19.776;2023-05-07T15:21:19;9.00;99.90
38428;DHT22;24211;49.980;19.776;2023-05-07T15:23:46;9.20;99.90
38428;DHT22;24211;49.980;19.776;2023-05-07T15:26:14;9.40;99.90
38428;DHT22;24211;49.980;19.776;2023-05-07T15:28:41;9.20;99.90
38428;DHT22;24211;49.980;19.776;2023-05-07T15:31:08;9.10;99.90
38428;DHT22;24211;49.980;19.776;2023-05-07T15:33:36;9.40;99.90
38428;DHT22;24211;49.980;19.776;2023-05-07T15:36:04;9.10;99.90
38428;DHT22;24211;49.980;19.776;2023-05-07T15:38:33;9.30;99.90
38428;DHT22;24211;49.980;19.776;2023-05-07T15:41:01;9.20;99.90
38428;DHT22;24211;49.980;19.776;2023-05-07T15:43:28;9.10;99.90
38428;DHT22;24211;49.980;19.776;2023-05-07T15:45:55;9.10;99.90
38428;DHT22;24211;49.980;19.776;2023-05-07T15:48:23;9.00;99.90
38428;DHT22;24211;49.980;19.776;2023-05-07T15:50:50;8.70;99.90
38428;DHT22;24211;49.980;19.776;2023-05-07T15:53:17;8.80;99.90